sensor_id;sensor_type;location;lat;lon;timestamp;P1;durP1;ratioP1;P2;durP2;ratioP2
33954;SDS011;20233;50.804;7.126;2023-06-14T00:00:20;5.75;;;4.97;;
33954;SDS011;20233;50.804;7.126;2023-06-14T00:02:46;6.55;;;4.65;;
33954;SDS011;20233;50.804;7.126;2023-06-14T00:05:11;7.95;;;5.45;;
33954;SDS011;20233;50.804;7.126;2023-06-14T00:07:38;6.55;;;5.07;;
33954;SDS011;20233;50.804;7.126;2023-06-14T00:10:07;7.55;;;5.20;;
33954;SDS011;20233;50.804;7.126;2023-06-14T00:12:34;6.43;;;5.07;;
33954;SDS011;20233;50.804;7.126;2023-06-14T00:15:00;8.55;;;4.93;;
33954;SDS011;20233;50.804;7.126;2023-06-14T00:17:26;6.60;;;4.97;;
33954;SDS011;20233;50.804;7.126;2023-06-14T00:19:56;7.00;;;5.17;;
33954;SDS011;20233;50.804;7.126;2023-06-14T00:22:22;7.03;;;5.28;;
33954;SDS011;20233;50.804;7.126;2023-06-14T00:24:53;7.50;;;5.53;;
33954;SDS011;20233;50.804;7.126;2023-06-14T00:27:19;6.15;;;5.00;;
33954;SDS011;20233;50.804;7.126;2023-06-14T00:29:45;8.00;;;5.85;;
33954;SDS011;20233;50.804;7.126;2023-06-14T00:32:11;7.15;;;5.00;;
33954;SDS011;20233;50.804;7.126;2023-06-14T00:34:37;8.00;;;5.38;;
33954;SDS011;20233;50.804;7.126;2023-06-14T00:37:02;6.80;;;4.82;;
33954;SDS011;20233;50.804;7.126;2023-06-14T00:39:28;6.38;;;5.40;;
33954;SDS011;20233;50.804;7.126;2023-06-14T00:41:54;8.07;;;5.55;;
33954;SDS011;20233;50.804;7.126;2023-06-14T00:44:19;8.68;;;5.35;;
33954;SDS011;20233;50.804;7.126;2023-06-14T00:46:46;5.93;;;5.07;;
33954;SDS011;20233;50.804;7.126;2023-06-14T00:49:12;8.73;;;5.18;;
33954;SDS011;20233;50.804;7.126;2023-06-14T00:51:40;6.22;;;5.53;;
33954;SDS011;20233;50.804;7.126;2023-06-14T00:54:06;6.80;;;5.38;;
33954;SDS011;20233;50.804;7.126;2023-06-14T00:56:32;5.75;;;4.90;;
33954;SDS011;20233;50.804;7.126;2023-06-14T00:58:57;5.70;;;4.50;;
33954;SDS011;20233;50.804;7.126;2023-06-14T01:01:23;6.03;;;4.88;;
33954;SDS011;20233;50.804;7.126;2023-06-14T01:03:49;7.35;;;4.72;;
33954;SDS011;20233;50.804;7.126;2023-06-14T01:06:19;7.38;;;4.82;;
33954;SDS011;20233;50.804;7.126;2023-06-14T01:09:01;7.85;;;4.80;;
33954;SDS011;20233;50.804;7.126;2023-06-14T01:11:41;7.95;;;5.00;;
33954;SDS011;20233;50.804;7.126;2023-06-14T01:14:26;8.40;;;4.82;;
33954;SDS011;20233;50.804;7.126;2023-06-14T01:16:53;6.97;;;4.75;;
33954;SDS011;20233;50.804;7.126;2023-06-14T01:19:22;10.00;;;4.72;;
33954;SDS011;20233;50.804;7.126;2023-06-14T01:21:50;6.85;;;4.82;;
33954;SDS011;20233;50.804;7.126;2023-06-14T01:24:16;6.43;;;4.82;;
33954;SDS011;20233;50.804;7.126;2023-06-14T01:26:44;6.97;;;4.65;;
33954;SDS011;20233;50.804;7.126;2023-06-14T01:29:11;6.90;;;4.85;;
33954;SDS011;20233;50.804;7.126;2023-06-14T01:34:08;8.68;;;5.35;;
33954;SDS011;20233;50.804;7.126;2023-06-14T01:36:33;5.20;;;4.55;;
33954;SDS011;20233;50.804;7.126;2023-06-14T01:39:01;6.25;;;4.95;;
33954;SDS011;20233;50.804;7.126;2023-06-14T01:41:28;6.53;;;4.95;;
33954;SDS011;20233;50.804;7.126;2023-06-14T01:43:54;6.75;;;5.00;;
33954;SDS011;20233;50.804;7.126;2023-06-14T01:46:21;5.65;;;4.82;;
33954;SDS011;20233;50.804;7.126;2023-06-14T01:48:48;7.57;;;5.00;;
33954;SDS011;20233;50.804;7.126;2023-06-14T01:51:14;8.68;;;5.15;;
33954;SDS011;20233;50.804;7.126;2023-06-14T01:53:40;8.85;;;4.70;;
33954;SDS011;20233;50.804;7.126;2023-06-14T01:56:05;9.57;;;4.90;;
33954;SDS011;20233;50.804;7.126;2023-06-14T01:58:31;22.40;;;5.20;;
33954;SDS011;20233;50.804;7.126;2023-06-14T02:00:58;7.25;;;5.32;;
33954;SDS011;20233;50.804;7.126;2023-06-14T02:03:27;6.55;;;4.43;;
33954;SDS011;20233;50.804;7.126;2023-06-14T02:05:53;8.02;;;5.55;;
33954;SDS011;20233;50.804;7.126;2023-06-14T02:08:20;6.20;;;4.55;;
33954;SDS011;20233;50.804;7.126;2023-06-14T02:10:46;7.57;;;5.50;;
33954;SDS011;20233;50.804;7.126;2023-06-14T02:13:11;8.25;;;5.32;;
33954;SDS011;20233;50.804;7.126;2023-06-14T02:15:37;7.43;;;5.28;;
33954;SDS011;20233;50.804;7.126;2023-06-14T02:18:03;6.43;;;4.53;;
33954;SDS011;20233;50.804;7.126;2023-06-14T02:20:29;8.52;;;5.40;;
33954;SDS011;20233;50.804;7.126;2023-06-14T02:22:55;8.02;;;4.63;;
33954;SDS011;20233;50.804;7.126;2023-06-14T02:25:20;8.02;;;5.30;;
33954;SDS011;20233;50.804;7.126;2023-06-14T02:27:46;7.15;;;4.68;;
33954;SDS011;20233;50.804;7.126;2023-06-14T02:30:12;8.55;;;4.97;;
33954;SDS011;20233;50.804;7.126;2023-06-14T02:32:38;7.32;;;5.47;;
33954;SDS011;20233;50.804;7.126;2023-06-14T02:35:05;10.10;;;4.97;;
33954;SDS011;20233;50.804;7.126;2023-06-14T02:37:31;9.27;;;5.75;;
33954;SDS011;20233;50.804;7.126;2023-06-14T02:39:58;7.25;;;5.45;;
33954;SDS011;20233;50.804;7.126;2023-06-14T02:42:24;7.05;;;5.15;;
33954;SDS011;20233;50.804;7.126;2023-06-14T02:44:49;6.50;;;5.80;;
33954;SDS011;20233;50.804;7.126;2023-06-14T02:47:16;7.88;;;5.35;;
33954;SDS011;20233;50.804;7.126;2023-06-14T02:49:42;6.43;;;5.65;;
33954;SDS011;20233;50.804;7.126;2023-06-14T02:52:08;5.68;;;5.07;;
33954;SDS011;20233;50.804;7.126;2023-06-14T02:54:34;6.68;;;5.80;;
33954;SDS011;20233;50.804;7.126;2023-06-14T02:57:01;6.28;;;4.97;;
33954;SDS011;20233;50.804;7.126;2023-06-14T02:59:26;6.10;;;5.30;;
33954;SDS011;20233;50.804;7.126;2023-06-14T03:01:52;9.93;;;5.43;;
33954;SDS011;20233;50.804;7.126;2023-06-14T03:04:18;7.68;;;5.53;;
33954;SDS011;20233;50.804;7.126;2023-06-14T03:06:43;8.18;;;5.47;;
33954;SDS011;20233;50.804;7.126;2023-06-14T03:09:09;8.23;;;5.88;;
33954;SDS011;20233;50.804;7.126;2023-06-14T03:11:34;9.40;;;5.95;;
33954;SDS011;20233;50.804;7.126;2023-06-14T03:14:00;6.95;;;5.40;;
33954;SDS011;20233;50.804;7.126;2023-06-14T03:16:28;6.82;;;5.70;;
33954;SDS011;20233;50.804;7.126;2023-06-14T03:18:54;7.72;;;6.05;;
33954;SDS011;20233;50.804;7.126;2023-06-14T03:21:20;8.20;;;6.03;;
33954;SDS011;20233;50.804;7.126;2023-06-14T03:23:46;6.30;;;5.68;;
33954;SDS011;20233;50.804;7.126;2023-06-14T03:26:12;8.48;;;5.72;;
33954;SDS011;20233;50.804;7.126;2023-06-14T03:28:39;7.53;;;5.80;;
33954;SDS011;20233;50.804;7.126;2023-06-14T03:31:05;13.25;;;6.82;;
33954;SDS011;20233;50.804;7.126;2023-06-14T03:33:30;7.43;;;5.55;;
33954;SDS011;20233;50.804;7.126;2023-06-14T03:35:56;13.80;;;5.45;;
33954;SDS011;20233;50.804;7.126;2023-06-14T03:38:22;7.25;;;6.07;;
33954;SDS011;20233;50.804;7.126;2023-06-14T03:40:48;8.43;;;5.70;;
33954;SDS011;20233;50.804;7.126;2023-06-14T03:43:13;6.70;;;5.53;;
33954;SDS011;20233;50.804;7.126;2023-06-14T03:45:39;7.65;;;5.43;;
33954;SDS011;20233;50.804;7.126;2023-06-14T03:48:05;8.38;;;6.10;;
33954;SDS011;20233;50.804;7.126;2023-06-14T03:50:31;10.32;;;6.00;;
33954;SDS011;20233;50.804;7.126;2023-06-14T03:52:57;9.70;;;6.07;;
33954;SDS011;20233;50.804;7.126;2023-06-14T03:55:23;13.93;;;5.95;;
33954;SDS011;20233;50.804;7.126;2023-06-14T03:57:50;12.52;;;5.85;;
33954;SDS011;20233;50.804;7.126;2023-06-14T04:00:17;10.25;;;6.50;;
33954;SDS011;20233;50.804;7.126;2023-06-14T04:02:43;8.90;;;6.25;;
33954;SDS011;20233;50.804;7.126;2023-06-14T04:05:12;9.13;;;6.72;;
33954;SDS011;20233;50.804;7.126;2023-06-14T04:07:38;7.55;;;5.30;;
33954;SDS011;20233;50.804;7.126;2023-06-14T04:10:09;8.65;;;6.00;;
33954;SDS011;20233;50.804;7.126;2023-06-14T04:12:39;11.18;;;5.50;;
33954;SDS011;20233;50.804;7.126;2023-06-14T04:15:05;8.38;;;5.65;;
33954;SDS011;20233;50.804;7.126;2023-06-14T04:17:31;8.20;;;5.85;;
33954;SDS011;20233;50.804;7.126;2023-06-14T04:19:58;7.53;;;5.47;;
33954;SDS011;20233;50.804;7.126;2023-06-14T04:22:24;10.73;;;7.50;;
33954;SDS011;20233;50.804;7.126;2023-06-14T04:24:53;8.27;;;6.38;;
33954;SDS011;20233;50.804;7.126;2023-06-14T04:27:21;6.50;;;5.45;;
33954;SDS011;20233;50.804;7.126;2023-06-14T04:29:50;8.35;;;5.75;;
33954;SDS011;20233;50.804;7.126;2023-06-14T04:32:25;8.52;;;6.47;;
33954;SDS011;20233;50.804;7.126;2023-06-14T04:34:54;6.35;;;5.68;;
33954;SDS011;20233;50.804;7.126;2023-06-14T04:37:21;7.10;;;5.72;;
33954;SDS011;20233;50.804;7.126;2023-06-14T04:39:50;7.45;;;5.95;;
33954;SDS011;20233;50.804;7.126;2023-06-14T04:42:17;7.68;;;6.30;;
33954;SDS011;20233;50.804;7.126;2023-06-14T04:44:45;10.52;;;6.38;;
33954;SDS011;20233;50.804;7.126;2023-06-14T04:47:12;12.27;;;6.82;;
33954;SDS011;20233;50.804;7.126;2023-06-14T04:49:41;10.05;;;6.88;;
33954;SDS011;20233;50.804;7.126;2023-06-14T04:52:07;10.60;;;6.20;;
33954;SDS011;20233;50.804;7.126;2023-06-14T04:54:35;8.63;;;5.82;;
33954;SDS011;20233;50.804;7.126;2023-06-14T04:57:06;9.23;;;6.20;;
33954;SDS011;20233;50.804;7.126;2023-06-14T04:59:32;8.48;;;5.70;;
33954;SDS011;20233;50.804;7.126;2023-06-14T05:02:00;6.95;;;5.25;;
33954;SDS011;20233;50.804;7.126;2023-06-14T05:04:26;8.68;;;5.40;;
33954;SDS011;20233;50.804;7.126;2023-06-14T05:06:53;8.35;;;5.90;;
33954;SDS011;20233;50.804;7.126;2023-06-14T05:09:22;5.90;;;4.60;;
33954;SDS011;20233;50.804;7.126;2023-06-14T05:11:48;7.00;;;4.78;;
33954;SDS011;20233;50.804;7.126;2023-06-14T05:14:15;6.80;;;4.75;;
33954;SDS011;20233;50.804;7.126;2023-06-14T05:16:41;6.18;;;3.90;;
33954;SDS011;20233;50.804;7.126;2023-06-14T05:19:06;6.28;;;4.50;;
33954;SDS011;20233;50.804;7.126;2023-06-14T05:21:32;8.10;;;4.30;;
33954;SDS011;20233;50.804;7.126;2023-06-14T05:24:02;7.50;;;4.25;;
33954;SDS011;20233;50.804;7.126;2023-06-14T05:26:28;6.00;;;4.65;;
33954;SDS011;20233;50.804;7.126;2023-06-14T05:28:57;7.28;;;4.55;;
33954;SDS011;20233;50.804;7.126;2023-06-14T05:31:23;8.52;;;4.43;;
33954;SDS011;20233;50.804;7.126;2023-06-14T05:33:50;7.75;;;4.57;;
33954;SDS011;20233;50.804;7.126;2023-06-14T05:36:16;7.40;;;4.07;;
33954;SDS011;20233;50.804;7.126;2023-06-14T05:38:42;5.15;;;4.28;;
33954;SDS011;20233;50.804;7.126;2023-06-14T05:41:07;7.07;;;4.40;;
33954;SDS011;20233;50.804;7.126;2023-06-14T05:43:33;9.40;;;4.43;;
33954;SDS011;20233;50.804;7.126;2023-06-14T05:45:59;8.20;;;4.70;;
33954;SDS011;20233;50.804;7.126;2023-06-14T05:48:25;11.32;;;4.50;;
33954;SDS011;20233;50.804;7.126;2023-06-14T05:50:50;6.68;;;3.92;;
33954;SDS011;20233;50.804;7.126;2023-06-14T05:53:16;7.05;;;3.80;;
33954;SDS011;20233;50.804;7.126;2023-06-14T05:55:42;5.53;;;3.83;;
33954;SDS011;20233;50.804;7.126;2023-06-14T05:58:07;5.63;;;2.88;;
33954;SDS011;20233;50.804;7.126;2023-06-14T06:00:33;7.07;;;3.33;;
33954;SDS011;20233;50.804;7.126;2023-06-14T06:02:58;4.82;;;2.95;;
33954;SDS011;20233;50.804;7.126;2023-06-14T06:05:25;8.98;;;2.95;;
33954;SDS011;20233;50.804;7.126;2023-06-14T06:07:51;5.55;;;2.88;;
33954;SDS011;20233;50.804;7.126;2023-06-14T06:10:17;7.05;;;3.28;;
33954;SDS011;20233;50.804;7.126;2023-06-14T06:12:42;8.18;;;2.90;;
33954;SDS011;20233;50.804;7.126;2023-06-14T06:15:08;5.85;;;2.72;;
33954;SDS011;20233;50.804;7.126;2023-06-14T06:17:38;6.47;;;3.60;;
33954;SDS011;20233;50.804;7.126;2023-06-14T06:20:04;7.10;;;3.10;;
33954;SDS011;20233;50.804;7.126;2023-06-14T06:22:33;7.97;;;2.75;;
33954;SDS011;20233;50.804;7.126;2023-06-14T06:25:01;7.10;;;2.92;;
33954;SDS011;20233;50.804;7.126;2023-06-14T06:27:27;4.70;;;2.60;;
33954;SDS011;20233;50.804;7.126;2023-06-14T06:29:53;7.05;;;2.85;;
33954;SDS011;20233;50.804;7.126;2023-06-14T06:32:19;5.22;;;2.65;;
33954;SDS011;20233;50.804;7.126;2023-06-14T06:34:44;10.90;;;3.13;;
33954;SDS011;20233;50.804;7.126;2023-06-14T06:37:10;6.82;;;3.10;;
33954;SDS011;20233;50.804;7.126;2023-06-14T06:39:36;6.00;;;2.47;;
33954;SDS011;20233;50.804;7.126;2023-06-14T06:42:01;9.35;;;3.08;;
33954;SDS011;20233;50.804;7.126;2023-06-14T06:44:29;4.90;;;2.17;;
33954;SDS011;20233;50.804;7.126;2023-06-14T06:46:57;6.70;;;2.83;;
33954;SDS011;20233;50.804;7.126;2023-06-14T06:49:22;6.05;;;2.47;;
33954;SDS011;20233;50.804;7.126;2023-06-14T06:52:05;5.90;;;2.70;;
33954;SDS011;20233;50.804;7.126;2023-06-14T06:54:31;4.68;;;2.13;;
33954;SDS011;20233;50.804;7.126;2023-06-14T06:56:58;5.45;;;2.70;;
33954;SDS011;20233;50.804;7.126;2023-06-14T06:59:24;4.82;;;2.50;;
33954;SDS011;20233;50.804;7.126;2023-06-14T07:01:50;5.82;;;2.47;;
33954;SDS011;20233;50.804;7.126;2023-06-14T07:04:16;4.78;;;2.80;;
33954;SDS011;20233;50.804;7.126;2023-06-14T07:06:42;5.85;;;2.72;;
33954;SDS011;20233;50.804;7.126;2023-06-14T07:09:08;5.50;;;2.38;;
33954;SDS011;20233;50.804;7.126;2023-06-14T07:11:38;7.25;;;2.40;;
33954;SDS011;20233;50.804;7.126;2023-06-14T07:14:04;5.25;;;2.25;;
33954;SDS011;20233;50.804;7.126;2023-06-14T07:16:31;7.47;;;2.40;;
33954;SDS011;20233;50.804;7.126;2023-06-14T07:18:57;4.75;;;2.35;;
33954;SDS011;20233;50.804;7.126;2023-06-14T07:21:23;4.15;;;2.40;;
33954;SDS011;20233;50.804;7.126;2023-06-14T07:23:50;3.55;;;2.33;;
33954;SDS011;20233;50.804;7.126;2023-06-14T07:26:16;5.47;;;2.38;;
33954;SDS011;20233;50.804;7.126;2023-06-14T07:28:42;6.40;;;2.03;;
33954;SDS011;20233;50.804;7.126;2023-06-14T07:31:10;15.07;;;2.53;;
33954;SDS011;20233;50.804;7.126;2023-06-14T07:33:35;15.50;;;3.60;;
33954;SDS011;20233;50.804;7.126;2023-06-14T07:36:01;4.95;;;1.45;;
33954;SDS011;20233;50.804;7.126;2023-06-14T07:38:27;5.10;;;1.63;;
33954;SDS011;20233;50.804;7.126;2023-06-14T07:40:53;4.53;;;1.52;;
33954;SDS011;20233;50.804;7.126;2023-06-14T07:43:19;3.38;;;1.23;;
33954;SDS011;20233;50.804;7.126;2023-06-14T07:45:45;2.78;;;1.15;;
33954;SDS011;20233;50.804;7.126;2023-06-14T07:48:11;3.75;;;1.25;;
33954;SDS011;20233;50.804;7.126;2023-06-14T07:50:36;4.32;;;1.13;;
33954;SDS011;20233;50.804;7.126;2023-06-14T07:53:02;2.80;;;1.13;;
33954;SDS011;20233;50.804;7.126;2023-06-14T07:55:27;1.92;;;1.10;;
33954;SDS011;20233;50.804;7.126;2023-06-14T07:57:53;2.53;;;0.80;;
33954;SDS011;20233;50.804;7.126;2023-06-14T08:00:19;1.73;;;0.77;;
33954;SDS011;20233;50.804;7.126;2023-06-14T08:02:45;2.20;;;0.57;;
33954;SDS011;20233;50.804;7.126;2023-06-14T08:05:11;2.78;;;1.15;;
33954;SDS011;20233;50.804;7.126;2023-06-14T08:07:38;2.47;;;0.55;;
33954;SDS011;20233;50.804;7.126;2023-06-14T08:10:05;2.05;;;0.75;;
33954;SDS011;20233;50.804;7.126;2023-06-14T08:12:32;2.85;;;0.50;;
33954;SDS011;20233;50.804;7.126;2023-06-14T08:15:00;3.78;;;0.75;;
33954;SDS011;20233;50.804;7.126;2023-06-14T08:17:26;2.92;;;0.75;;
33954;SDS011;20233;50.804;7.126;2023-06-14T08:19:52;1.90;;;0.60;;
33954;SDS011;20233;50.804;7.126;2023-06-14T08:22:22;3.28;;;0.50;;
33954;SDS011;20233;50.804;7.126;2023-06-14T08:24:49;6.30;;;0.60;;
33954;SDS011;20233;50.804;7.126;2023-06-14T08:27:15;3.35;;;0.80;;
33954;SDS011;20233;50.804;7.126;2023-06-14T08:29:40;1.35;;;0.63;;
33954;SDS011;20233;50.804;7.126;2023-06-14T08:32:07;3.45;;;0.63;;
33954;SDS011;20233;50.804;7.126;2023-06-14T08:34:32;1.40;;;0.50;;
33954;SDS011;20233;50.804;7.126;2023-06-14T08:36:58;2.13;;;0.40;;
33954;SDS011;20233;50.804;7.126;2023-06-14T08:39:23;1.92;;;0.50;;
33954;SDS011;20233;50.804;7.126;2023-06-14T08:41:49;2.60;;;0.45;;
33954;SDS011;20233;50.804;7.126;2023-06-14T08:44:17;5.70;;;0.50;;
33954;SDS011;20233;50.804;7.126;2023-06-14T08:46:43;2.83;;;1.10;;
33954;SDS011;20233;50.804;7.126;2023-06-14T08:49:11;5.10;;;0.88;;
33954;SDS011;20233;50.804;7.126;2023-06-14T08:51:37;2.40;;;0.63;;
33954;SDS011;20233;50.804;7.126;2023-06-14T08:54:05;2.63;;;0.55;;
33954;SDS011;20233;50.804;7.126;2023-06-14T08:56:31;2.45;;;0.55;;
33954;SDS011;20233;50.804;7.126;2023-06-14T08:58:59;2.53;;;0.50;;
33954;SDS011;20233;50.804;7.126;2023-06-14T09:01:34;1.88;;;0.52;;
33954;SDS011;20233;50.804;7.126;2023-06-14T09:04:01;1.88;;;0.70;;
33954;SDS011;20233;50.804;7.126;2023-06-14T09:06:27;3.72;;;0.77;;
33954;SDS011;20233;50.804;7.126;2023-06-14T09:08:54;1.30;;;0.55;;
33954;SDS011;20233;50.804;7.126;2023-06-14T09:11:23;2.72;;;0.85;;
33954;SDS011;20233;50.804;7.126;2023-06-14T09:13:51;2.85;;;0.85;;
33954;SDS011;20233;50.804;7.126;2023-06-14T09:16:17;2.25;;;0.70;;
33954;SDS011;20233;50.804;7.126;2023-06-14T09:18:44;1.52;;;0.57;;
33954;SDS011;20233;50.804;7.126;2023-06-14T09:21:12;1.73;;;0.93;;
33954;SDS011;20233;50.804;7.126;2023-06-14T09:23:46;1.80;;;0.70;;
33954;SDS011;20233;50.804;7.126;2023-06-14T09:26:13;1.50;;;0.70;;
33954;SDS011;20233;50.804;7.126;2023-06-14T09:28:41;1.33;;;0.50;;
33954;SDS011;20233;50.804;7.126;2023-06-14T09:31:12;3.03;;;1.00;;
33954;SDS011;20233;50.804;7.126;2023-06-14T09:33:46;2.00;;;0.60;;
33954;SDS011;20233;50.804;7.126;2023-06-14T09:39:01;1.67;;;0.60;;
33954;SDS011;20233;50.804;7.126;2023-06-14T09:41:34;3.65;;;1.10;;
33954;SDS011;20233;50.804;7.126;2023-06-14T09:44:02;3.67;;;0.70;;
33954;SDS011;20233;50.804;7.126;2023-06-14T09:46:29;3.38;;;0.88;;
33954;SDS011;20233;50.804;7.126;2023-06-14T09:48:56;1.70;;;0.68;;
33954;SDS011;20233;50.804;7.126;2023-06-14T09:51:22;3.63;;;0.82;;
33954;SDS011;20233;50.804;7.126;2023-06-14T09:53:49;3.60;;;0.75;;
33954;SDS011;20233;50.804;7.126;2023-06-14T09:56:31;2.38;;;0.68;;
33954;SDS011;20233;50.804;7.126;2023-06-14T09:59:03;1.98;;;0.45;;
33954;SDS011;20233;50.804;7.126;2023-06-14T10:01:31;2.28;;;0.70;;
33954;SDS011;20233;50.804;7.126;2023-06-14T10:04:04;3.17;;;0.60;;
33954;SDS011;20233;50.804;7.126;2023-06-14T10:06:30;3.35;;;0.63;;
33954;SDS011;20233;50.804;7.126;2023-06-14T10:08:57;3.45;;;0.65;;
33954;SDS011;20233;50.804;7.126;2023-06-14T10:11:27;3.40;;;0.50;;
33954;SDS011;20233;50.804;7.126;2023-06-14T10:13:53;2.88;;;0.52;;
33954;SDS011;20233;50.804;7.126;2023-06-14T10:19:09;3.03;;;0.73;;
33954;SDS011;20233;50.804;7.126;2023-06-14T10:22:04;2.22;;;0.60;;
33954;SDS011;20233;50.804;7.126;2023-06-14T10:24:38;2.65;;;0.70;;
33954;SDS011;20233;50.804;7.126;2023-06-14T10:27:07;4.35;;;0.80;;
33954;SDS011;20233;50.804;7.126;2023-06-14T10:32:21;1.50;;;0.80;;
33954;SDS011;20233;50.804;7.126;2023-06-14T10:35:02;1.48;;;0.40;;
33954;SDS011;20233;50.804;7.126;2023-06-14T10:37:31;3.15;;;0.60;;
33954;SDS011;20233;50.804;7.126;2023-06-14T10:39:57;1.38;;;0.47;;
33954;SDS011;20233;50.804;7.126;2023-06-14T10:42:26;1.95;;;0.60;;
33954;SDS011;20233;50.804;7.126;2023-06-14T10:44:59;4.13;;;0.88;;
33954;SDS011;20233;50.804;7.126;2023-06-14T10:47:29;2.00;;;0.90;;
33954;SDS011;20233;50.804;7.126;2023-06-14T10:50:09;2.83;;;0.60;;
33954;SDS011;20233;50.804;7.126;2023-06-14T10:52:40;2.03;;;0.60;;
33954;SDS011;20233;50.804;7.126;2023-06-14T11:00:04;2.85;;;0.70;;
33954;SDS011;20233;50.804;7.126;2023-06-14T11:02:51;2.80;;;0.60;;
33954;SDS011;20233;50.804;7.126;2023-06-14T11:11:15;1.83;;;0.60;;
33954;SDS011;20233;50.804;7.126;2023-06-14T11:13:44;3.92;;;0.65;;
33954;SDS011;20233;50.804;7.126;2023-06-14T11:16:14;2.70;;;0.70;;
33954;SDS011;20233;50.804;7.126;2023-06-14T11:18:41;1.85;;;0.73;;
33954;SDS011;20233;50.804;7.126;2023-06-14T11:21:08;2.55;;;0.45;;
33954;SDS011;20233;50.804;7.126;2023-06-14T11:23:34;1.85;;;0.70;;
33954;SDS011;20233;50.804;7.126;2023-06-14T11:26:00;2.72;;;0.57;;
33954;SDS011;20233;50.804;7.126;2023-06-14T11:28:39;1.38;;;0.60;;
33954;SDS011;20233;50.804;7.126;2023-06-14T11:31:07;2.15;;;0.80;;
33954;SDS011;20233;50.804;7.126;2023-06-14T11:33:33;3.95;;;1.13;;
33954;SDS011;20233;50.804;7.126;2023-06-14T11:36:01;3.05;;;0.70;;
33954;SDS011;20233;50.804;7.126;2023-06-14T11:38:29;2.17;;;0.95;;
33954;SDS011;20233;50.804;7.126;2023-06-14T11:40:59;1.20;;;0.57;;
33954;SDS011;20233;50.804;7.126;2023-06-14T11:45:52;2.50;;;0.85;;
33954;SDS011;20233;50.804;7.126;2023-06-14T11:48:18;1.20;;;0.40;;
33954;SDS011;20233;50.804;7.126;2023-06-14T11:50:43;3.15;;;0.30;;
33954;SDS011;20233;50.804;7.126;2023-06-14T11:53:09;1.33;;;0.60;;
33954;SDS011;20233;50.804;7.126;2023-06-14T11:55:38;2.97;;;0.40;;
33954;SDS011;20233;50.804;7.126;2023-06-14T11:58:05;1.80;;;0.30;;
33954;SDS011;20233;50.804;7.126;2023-06-14T12:00:31;2.92;;;0.30;;
33954;SDS011;20233;50.804;7.126;2023-06-14T12:02:59;1.98;;;0.40;;
33954;SDS011;20233;50.804;7.126;2023-06-14T12:05:25;0.82;;;0.20;;
33954;SDS011;20233;50.804;7.126;2023-06-14T12:07:59;2.35;;;0.20;;
33954;SDS011;20233;50.804;7.126;2023-06-14T12:10:26;1.83;;;0.30;;
33954;SDS011;20233;50.804;7.126;2023-06-14T12:12:56;1.35;;;0.30;;
33954;SDS011;20233;50.804;7.126;2023-06-14T12:15:22;1.65;;;0.30;;
33954;SDS011;20233;50.804;7.126;2023-06-14T12:17:48;2.70;;;0.40;;
33954;SDS011;20233;50.804;7.126;2023-06-14T12:20:14;2.33;;;0.30;;
33954;SDS011;20233;50.804;7.126;2023-06-14T12:23:02;0.90;;;0.30;;
33954;SDS011;20233;50.804;7.126;2023-06-14T12:25:32;2.22;;;0.30;;
33954;SDS011;20233;50.804;7.126;2023-06-14T12:28:05;2.08;;;0.30;;
33954;SDS011;20233;50.804;7.126;2023-06-14T12:30:32;6.70;;;0.55;;
33954;SDS011;20233;50.804;7.126;2023-06-14T12:32:58;3.00;;;0.52;;
33954;SDS011;20233;50.804;7.126;2023-06-14T12:35:27;1.58;;;0.45;;
33954;SDS011;20233;50.804;7.126;2023-06-14T12:37:52;1.35;;;0.20;;
33954;SDS011;20233;50.804;7.126;2023-06-14T12:40:18;2.72;;;0.43;;
33954;SDS011;20233;50.804;7.126;2023-06-14T12:42:44;2.20;;;0.50;;
33954;SDS011;20233;50.804;7.126;2023-06-14T12:45:12;2.35;;;0.50;;
33954;SDS011;20233;50.804;7.126;2023-06-14T12:47:38;1.73;;;0.50;;
33954;SDS011;20233;50.804;7.126;2023-06-14T12:50:06;2.83;;;0.30;;
33954;SDS011;20233;50.804;7.126;2023-06-14T12:52:32;1.02;;;0.30;;
33954;SDS011;20233;50.804;7.126;2023-06-14T12:55:01;1.35;;;0.47;;
33954;SDS011;20233;50.804;7.126;2023-06-14T12:57:30;3.17;;;0.30;;
33954;SDS011;20233;50.804;7.126;2023-06-14T12:59:56;1.45;;;0.25;;
33954;SDS011;20233;50.804;7.126;2023-06-14T13:02:23;1.70;;;0.65;;
33954;SDS011;20233;50.804;7.126;2023-06-14T13:04:49;2.15;;;0.55;;
33954;SDS011;20233;50.804;7.126;2023-06-14T13:07:15;1.08;;;0.43;;
33954;SDS011;20233;50.804;7.126;2023-06-14T13:09:41;2.00;;;0.45;;
33954;SDS011;20233;50.804;7.126;2023-06-14T13:12:07;1.63;;;0.40;;
33954;SDS011;20233;50.804;7.126;2023-06-14T13:14:36;3.22;;;0.70;;
33954;SDS011;20233;50.804;7.126;2023-06-14T13:17:01;3.40;;;0.50;;
33954;SDS011;20233;50.804;7.126;2023-06-14T13:19:27;1.05;;;0.38;;
33954;SDS011;20233;50.804;7.126;2023-06-14T13:21:53;4.07;;;0.65;;
33954;SDS011;20233;50.804;7.126;2023-06-14T13:24:18;1.15;;;0.45;;
33954;SDS011;20233;50.804;7.126;2023-06-14T13:26:44;1.92;;;0.43;;
33954;SDS011;20233;50.804;7.126;2023-06-14T13:29:10;3.17;;;0.60;;
33954;SDS011;20233;50.804;7.126;2023-06-14T13:31:36;1.70;;;0.47;;
33954;SDS011;20233;50.804;7.126;2023-06-14T13:34:01;2.13;;;0.82;;
33954;SDS011;20233;50.804;7.126;2023-06-14T13:36:27;4.22;;;0.57;;
33954;SDS011;20233;50.804;7.126;2023-06-14T13:38:52;2.70;;;0.60;;
33954;SDS011;20233;50.804;7.126;2023-06-14T13:41:19;7.60;;;0.70;;
33954;SDS011;20233;50.804;7.126;2023-06-14T13:43:45;2.08;;;0.45;;
33954;SDS011;20233;50.804;7.126;2023-06-14T13:46:10;4.50;;;0.90;;
33954;SDS011;20233;50.804;7.126;2023-06-14T13:48:36;3.00;;;0.65;;
33954;SDS011;20233;50.804;7.126;2023-06-14T13:51:02;3.80;;;0.82;;
33954;SDS011;20233;50.804;7.126;2023-06-14T13:53:29;1.45;;;0.50;;
33954;SDS011;20233;50.804;7.126;2023-06-14T13:55:55;2.38;;;0.50;;
33954;SDS011;20233;50.804;7.126;2023-06-14T13:58:20;1.42;;;0.50;;
33954;SDS011;20233;50.804;7.126;2023-06-14T14:00:46;3.78;;;1.10;;
33954;SDS011;20233;50.804;7.126;2023-06-14T14:03:11;3.33;;;0.90;;
33954;SDS011;20233;50.804;7.126;2023-06-14T14:05:37;4.28;;;1.80;;
33954;SDS011;20233;50.804;7.126;2023-06-14T14:08:03;2.63;;;1.10;;
33954;SDS011;20233;50.804;7.126;2023-06-14T14:10:29;2.00;;;1.20;;
33954;SDS011;20233;50.804;7.126;2023-06-14T14:12:55;3.10;;;0.80;;
33954;SDS011;20233;50.804;7.126;2023-06-14T14:15:21;0.98;;;0.50;;
33954;SDS011;20233;50.804;7.126;2023-06-14T14:17:47;2.03;;;0.60;;
33954;SDS011;20233;50.804;7.126;2023-06-14T14:20:12;1.77;;;0.57;;
33954;SDS011;20233;50.804;7.126;2023-06-14T14:22:41;2.35;;;0.60;;
33954;SDS011;20233;50.804;7.126;2023-06-14T14:25:07;2.63;;;0.52;;
33954;SDS011;20233;50.804;7.126;2023-06-14T14:27:33;5.53;;;0.70;;
33954;SDS011;20233;50.804;7.126;2023-06-14T14:29:59;1.20;;;0.40;;
33954;SDS011;20233;50.804;7.126;2023-06-14T14:32:24;1.77;;;0.65;;
33954;SDS011;20233;50.804;7.126;2023-06-14T14:34:50;3.28;;;0.52;;
33954;SDS011;20233;50.804;7.126;2023-06-14T14:37:15;2.78;;;0.50;;
33954;SDS011;20233;50.804;7.126;2023-06-14T14:39:41;2.40;;;0.60;;
33954;SDS011;20233;50.804;7.126;2023-06-14T14:42:07;3.03;;;0.60;;
33954;SDS011;20233;50.804;7.126;2023-06-14T14:44:32;2.67;;;0.73;;
33954;SDS011;20233;50.804;7.126;2023-06-14T14:46:58;1.20;;;0.60;;
33954;SDS011;20233;50.804;7.126;2023-06-14T14:49:24;3.35;;;0.57;;
33954;SDS011;20233;50.804;7.126;2023-06-14T14:51:49;1.77;;;0.73;;
33954;SDS011;20233;50.804;7.126;2023-06-14T14:54:16;1.35;;;0.60;;
33954;SDS011;20233;50.804;7.126;2023-06-14T14:56:41;1.35;;;0.82;;
33954;SDS011;20233;50.804;7.126;2023-06-14T14:59:07;2.22;;;0.70;;
33954;SDS011;20233;50.804;7.126;2023-06-14T15:01:32;1.45;;;0.60;;
33954;SDS011;20233;50.804;7.126;2023-06-14T15:03:58;3.90;;;0.50;;
33954;SDS011;20233;50.804;7.126;2023-06-14T15:06:23;1.63;;;0.40;;
33954;SDS011;20233;50.804;7.126;2023-06-14T15:08:49;2.75;;;0.70;;
33954;SDS011;20233;50.804;7.126;2023-06-14T15:11:16;1.73;;;0.60;;